createdAt,value
2023-05-05T00:00:53.374Z,448.00
2023-05-05T00:01:53.426Z,421.00
2023-05-05T00:02:53.430Z,412.00
2023-05-05T00:03:53.463Z,419.00
2023-05-05T00:04:53.439Z,431.00
2023-05-05T00:05:53.452Z,453.00
2023-05-05T00:06:53.468Z,483.00
2023-05-05T00:07:53.493Z,499.00
2023-05-05T00:08:53.518Z,500.00
2023-05-05T00:09:53.542Z,501.00
2023-05-05T00:10:53.627Z,500.00
2023-05-05T00:11:53.605Z,500.00
2023-05-05T00:12:53.669Z,500.00
2023-05-05T00:13:53.668Z,501.00
2023-05-05T00:14:53.706Z,499.00
2023-05-05T00:15:53.733Z,502.00
2023-05-05T00:16:53.833Z,500.00
2023-05-05T00:17:53.894Z,501.00
2023-05-05T00:18:53.885Z,500.00
2023-05-05T00:19:53.885Z,503.00
2023-05-05T00:20:53.932Z,502.00
2023-05-05T00:21:53.963Z,504.00
2023-05-05T00:22:54.008Z,502.00
2023-05-05T00:23:54.043Z,500.00
2023-05-05T00:24:54.082Z,500.00
2023-05-05T00:25:54.121Z,503.00
2023-05-05T00:26:54.218Z,501.00
2023-05-05T00:27:54.219Z,500.00
2023-05-05T00:28:54.273Z,500.00
2023-05-05T00:29:54.304Z,500.00
2023-05-05T00:30:54.390Z,501.00
2023-05-05T00:31:54.399Z,500.00
2023-05-05T00:32:54.474Z,500.00
2023-05-05T00:33:54.480Z,500.00
2023-05-05T00:34:54.525Z,504.00
2023-05-05T00:35:54.595Z,501.00
2023-05-05T00:36:54.630Z,500.00
2023-05-05T00:37:54.672Z,503.00
2023-05-05T00:38:54.712Z,501.00
2023-05-05T00:39:54.758Z,501.00
2023-05-05T00:40:54.803Z,500.00
2023-05-05T00:41:54.847Z,504.00
2023-05-05T00:42:54.925Z,500.00
2023-05-05T00:43:54.927Z,503.00
2023-05-05T00:44:54.975Z,500.00
2023-05-05T00:45:55.017Z,501.00
2023-05-05T00:46:55.089Z,500.00
2023-05-05T00:47:55.180Z,501.00
2023-05-05T00:48:55.211Z,502.00
2023-05-05T00:49:55.193Z,502.00
2023-05-05T00:50:55.239Z,500.00
2023-05-05T00:51:55.277Z,504.00
2023-05-05T00:52:55.344Z,505.00
2023-05-05T00:53:55.381Z,501.00
2023-05-05T00:54:55.432Z,501.00
2023-05-05T00:55:55.471Z,502.00
2023-05-05T00:56:55.540Z,501.00
2023-05-05T00:57:55.551Z,503.00
2023-05-05T00:58:55.605Z,503.00
2023-05-05T00:59:55.623Z,501.00
2023-05-05T01:00:55.677Z,501.00
2023-05-05T01:01:55.756Z,501.00
2023-05-05T01:02:55.975Z,500.00
2023-05-05T01:03:55.838Z,500.00
2023-05-05T01:04:55.879Z,502.00
2023-05-05T01:05:55.924Z,503.00
2023-05-05T01:06:55.965Z,502.00
2023-05-05T01:07:56.008Z,502.00
2023-05-05T01:08:56.050Z,500.00
2023-05-05T01:10:10.975Z,500.00
2023-05-05T01:10:56.106Z,501.00
2023-05-05T01:11:56.078Z,502.00
2023-05-05T01:12:56.142Z,501.00
2023-05-05T01:13:56.025Z,502.00
2023-05-05T01:14:56.029Z,500.00
2023-05-05T01:15:55.976Z,500.00
2023-05-05T01:16:55.944Z,502.00
2023-05-05T01:17:55.994Z,501.00
2023-05-05T01:18:55.905Z,502.00
2023-05-05T01:19:55.882Z,500.00
2023-05-05T01:20:55.859Z,500.00
2023-05-05T01:21:55.833Z,502.00
2023-05-05T01:22:55.811Z,501.00
2023-05-05T01:23:55.795Z,503.00
2023-05-05T01:24:55.769Z,504.00
2023-05-05T01:25:55.751Z,501.00
2023-05-05T01:26:55.720Z,500.00
2023-05-05T01:27:55.713Z,500.00
2023-05-05T01:28:55.672Z,506.00
2023-05-05T01:29:55.655Z,507.00
2023-05-05T01:30:55.682Z,504.00
2023-05-05T01:31:55.660Z,501.00
2023-05-05T01:32:55.658Z,501.00
2023-05-05T01:33:55.580Z,502.00
2023-05-05T01:34:55.605Z,502.00
2023-05-05T01:35:55.637Z,502.00
2023-05-05T01:36:55.671Z,500.00
2023-05-05T01:37:55.727Z,505.00
2023-05-05T01:38:55.799Z,500.00
2023-05-05T01:39:55.817Z,501.00
2023-05-05T01:40:55.870Z,504.00
2023-05-05T01:41:55.922Z,501.00
2023-05-05T01:42:55.962Z,503.00
2023-05-05T01:43:56.031Z,501.00
2023-05-05T01:44:56.073Z,501.00
2023-05-05T01:45:56.123Z,503.00
2023-05-05T01:46:56.159Z,500.00
2023-05-05T01:47:56.242Z,501.00
2023-05-05T01:48:56.240Z,505.00
2023-05-05T01:49:56.280Z,508.00
2023-05-05T01:50:56.331Z,503.00
2023-05-05T01:51:56.378Z,505.00
2023-05-05T01:52:56.417Z,501.00
2023-05-05T01:53:56.471Z,500.00
2023-05-05T01:54:56.515Z,504.00
2023-05-05T01:55:56.562Z,500.00
2023-05-05T01:56:56.607Z,502.00
2023-05-05T01:57:56.655Z,503.00
2023-05-05T01:58:56.694Z,502.00
2023-05-05T01:59:56.754Z,505.00
2023-05-05T02:00:56.897Z,500.00
2023-05-05T02:01:56.840Z,500.00
2023-05-05T02:02:57.040Z,500.00
2023-05-05T02:03:56.947Z,504.00
2023-05-05T02:04:57.036Z,504.00
2023-05-05T02:05:57.045Z,502.00
2023-05-05T02:06:57.084Z,505.00
2023-05-05T02:07:57.133Z,502.00
2023-05-05T02:08:57.192Z,503.00
2023-05-05T02:09:57.245Z,500.00
2023-05-05T02:10:57.298Z,503.00
2023-05-05T02:11:57.354Z,504.00
2023-05-05T02:12:57.470Z,501.00
2023-05-05T02:13:57.499Z,502.00
2023-05-05T02:14:57.477Z,502.00
2023-05-05T02:15:57.541Z,504.00
2023-05-05T02:16:57.598Z,502.00
2023-05-05T02:17:57.644Z,503.00
2023-05-05T02:18:57.703Z,503.00
2023-05-05T02:19:57.729Z,503.00
2023-05-05T02:20:57.778Z,503.00
2023-05-05T02:21:57.833Z,501.00
2023-05-05T02:22:57.878Z,504.00
2023-05-05T02:23:57.933Z,505.00
2023-05-05T02:24:57.985Z,503.00
2023-05-05T02:25:58.043Z,502.00
2023-05-05T02:26:58.101Z,503.00
2023-05-05T02:27:58.149Z,501.00
2023-05-05T02:28:58.199Z,503.00
2023-05-05T02:29:58.236Z,503.00
2023-05-05T02:30:58.363Z,502.00
2023-05-05T02:31:58.328Z,500.00
2023-05-05T02:32:58.394Z,500.00
2023-05-05T02:33:58.429Z,507.00
2023-05-05T02:34:58.498Z,505.00
2023-05-05T02:35:58.528Z,506.00
2023-05-05T02:36:58.601Z,505.00
2023-05-05T02:37:58.632Z,503.00
2023-05-05T02:38:58.680Z,500.00
2023-05-05T02:39:58.850Z,500.00
2023-05-05T02:40:58.796Z,504.00
2023-05-05T02:41:58.822Z,503.00
2023-05-05T02:42:58.882Z,502.00
2023-05-05T02:43:58.931Z,501.00
2023-05-05T02:44:58.972Z,501.00
2023-05-05T02:45:59.038Z,504.00
2023-05-05T02:46:59.112Z,502.00
2023-05-05T02:47:59.157Z,500.00
2023-05-05T02:48:59.161Z,505.00
2023-05-05T02:49:59.207Z,501.00
2023-05-05T02:50:59.302Z,501.00
2023-05-05T02:51:59.317Z,501.00
2023-05-05T02:52:59.372Z,500.00
2023-05-05T02:53:59.410Z,502.00
2023-05-05T02:54:59.459Z,505.00
2023-05-05T02:55:59.528Z,501.00
2023-05-05T02:56:59.571Z,503.00
2023-05-05T02:57:59.612Z,501.00
2023-05-05T02:58:59.664Z,504.00
2023-05-05T02:59:59.708Z,500.00
2023-05-05T03:00:59.762Z,502.00
2023-05-05T03:01:59.833Z,500.00
2023-05-05T03:02:59.891Z,500.00
2023-05-05T03:03:59.895Z,503.00
2023-05-05T03:04:59.935Z,503.00
2023-05-05T03:05:59.999Z,502.00
2023-05-05T03:07:00.053Z,503.00
2023-05-05T03:08:00.089Z,501.00
2023-05-05T03:09:00.154Z,500.00
2023-05-05T03:10:00.247Z,505.00
2023-05-05T03:11:00.256Z,502.00
2023-05-05T03:12:00.330Z,502.00
2023-05-05T03:13:00.359Z,500.00
2023-05-05T03:14:00.399Z,500.00
2023-05-05T03:15:00.457Z,501.00
2023-05-05T03:16:00.534Z,502.00
2023-05-05T03:17:00.537Z,507.00
2023-05-05T03:18:00.675Z,503.00
2023-05-05T03:19:00.628Z,503.00
2023-05-05T03:20:04.481Z,501.00
2023-05-05T03:21:00.656Z,502.00
2023-05-05T03:22:00.658Z,502.00
2023-05-05T03:23:00.654Z,501.00
2023-05-05T03:24:00.625Z,499.00
2023-05-05T03:25:00.613Z,498.00
2023-05-05T03:26:00.590Z,502.00
2023-05-05T03:27:00.593Z,502.00
2023-05-05T03:28:00.577Z,501.00
2023-05-05T03:29:00.578Z,500.00
2023-05-05T03:30:00.564Z,501.00
2023-05-05T03:31:00.542Z,500.00
2023-05-05T03:32:00.573Z,502.00
2023-05-05T03:33:00.552Z,501.00
2023-05-05T03:34:00.579Z,503.00
2023-05-05T03:35:00.623Z,500.00
2023-05-05T03:36:00.659Z,501.00
2023-05-05T03:37:00.723Z,500.00
2023-05-05T03:38:00.770Z,504.00
2023-05-05T03:39:00.844Z,501.00
2023-05-05T03:40:00.888Z,500.00
2023-05-05T03:41:00.928Z,501.00
2023-05-05T03:42:00.994Z,504.00
2023-05-05T03:43:01.027Z,500.00
2023-05-05T03:44:01.071Z,502.00
2023-05-05T03:45:01.119Z,503.00
2023-05-05T03:46:01.206Z,501.00
2023-05-05T03:47:01.190Z,501.00
2023-05-05T03:48:01.283Z,501.00
2023-05-05T03:49:01.276Z,501.00
2023-05-05T03:50:01.326Z,500.00
2023-05-05T03:51:01.383Z,500.00
2023-05-05T03:52:01.450Z,503.00
2023-05-05T03:53:01.510Z,504.00
2023-05-05T03:54:01.598Z,500.00
2023-05-05T03:55:01.661Z,500.00
2023-05-05T03:56:01.651Z,500.00
2023-05-05T03:57:01.703Z,502.00
2023-05-05T03:58:01.746Z,507.00
2023-05-05T03:59:01.823Z,505.00
2023-05-05T04:00:01.848Z,500.00
2023-05-05T04:01:01.918Z,501.00
2023-05-05T04:02:01.970Z,500.00
2023-05-05T04:03:02.052Z,502.00
2023-05-05T04:04:02.061Z,509.00
2023-05-05T04:05:02.060Z,505.00
2023-05-05T04:06:02.107Z,502.00
2023-05-05T04:07:02.158Z,500.00
2023-05-05T04:08:02.221Z,501.00
2023-05-05T04:09:02.272Z,502.00
2023-05-05T04:10:02.332Z,500.00
2023-05-05T04:11:02.431Z,500.00
2023-05-05T04:12:02.430Z,501.00
2023-05-05T04:13:02.495Z,500.00
2023-05-05T04:14:02.533Z,503.00
2023-05-05T04:15:02.587Z,501.00
2023-05-05T04:16:02.679Z,500.00
2023-05-05T04:17:02.703Z,501.00
2023-05-05T04:18:02.762Z,501.00
2023-05-05T04:19:02.791Z,502.00
2023-05-05T04:20:02.836Z,503.00
2023-05-05T04:21:02.893Z,500.00
2023-05-05T04:22:02.934Z,500.00
2023-05-05T04:23:02.980Z,500.00
2023-05-05T04:24:03.044Z,500.00
2023-05-05T04:25:03.087Z,502.00
2023-05-05T04:26:03.175Z,503.00
2023-05-05T04:27:03.228Z,502.00
2023-05-05T04:28:03.254Z,501.00
2023-05-05T04:29:03.301Z,500.00
2023-05-05T04:30:03.348Z,502.00
2023-05-05T04:31:03.537Z,503.00
2023-05-05T04:32:03.468Z,500.00
2023-05-05T04:33:03.598Z,503.00
2023-05-05T04:34:03.541Z,501.00
2023-05-05T04:35:03.576Z,500.00
2023-05-05T04:36:03.628Z,501.00
2023-05-05T04:37:03.768Z,501.00
2023-05-05T04:38:03.711Z,503.00
2023-05-05T04:39:03.809Z,501.00
2023-05-05T04:40:03.790Z,501.00
2023-05-05T04:41:03.837Z,505.00
2023-05-05T04:42:03.906Z,500.00
2023-05-05T04:43:04.068Z,501.00
2023-05-05T04:44:03.997Z,502.00
2023-05-05T04:45:04.058Z,501.00
2023-05-05T04:46:04.168Z,504.00
2023-05-05T04:47:04.178Z,505.00
2023-05-05T04:48:04.254Z,503.00
2023-05-05T04:49:04.237Z,501.00
2023-05-05T04:50:04.302Z,507.00
2023-05-05T04:51:04.354Z,501.00
2023-05-05T04:52:04.386Z,502.00
2023-05-05T04:53:04.422Z,504.00
2023-05-05T04:54:04.483Z,501.00
2023-05-05T04:55:04.523Z,505.00
2023-05-05T04:56:04.560Z,500.00
2023-05-05T04:57:04.583Z,500.00
2023-05-05T04:58:04.626Z,502.00
2023-05-05T04:59:04.675Z,503.00
2023-05-05T05:00:04.703Z,501.00
2023-05-05T05:01:04.731Z,501.00
2023-05-05T05:02:04.845Z,500.00
2023-05-05T05:03:04.968Z,500.00
2023-05-05T05:04:05.058Z,501.00
2023-05-05T05:05:04.914Z,502.00
2023-05-05T05:06:04.986Z,503.00
2023-05-05T05:07:05.007Z,501.00
2023-05-05T05:08:05.060Z,500.00
2023-05-05T05:09:05.094Z,501.00
2023-05-05T05:10:05.231Z,501.00
2023-05-05T05:11:05.192Z,501.00
2023-05-05T05:12:05.202Z,503.00
2023-05-05T05:13:05.570Z,503.00
2023-05-05T05:14:05.293Z,503.00
2023-05-05T05:15:05.374Z,500.00
2023-05-05T05:16:05.380Z,501.00
2023-05-05T05:17:05.412Z,502.00
2023-05-05T05:18:05.589Z,500.00
2023-05-05T05:19:05.500Z,501.00
2023-05-05T05:20:05.556Z,500.00
2023-05-05T05:21:06.069Z,501.00
2023-05-05T05:22:05.612Z,507.00
2023-05-05T05:23:05.679Z,504.00
2023-05-05T05:24:05.730Z,503.00
2023-05-05T05:25:05.802Z,502.00
2023-05-05T05:26:05.882Z,502.00
2023-05-05T05:27:07.331Z,504.00
2023-05-05T05:28:10.499Z,504.00
2023-05-05T05:29:05.837Z,505.00
2023-05-05T05:30:06.027Z,507.00
2023-05-05T05:31:05.801Z,507.00
2023-05-05T05:32:05.823Z,510.00
2023-05-05T05:33:05.773Z,511.00
2023-05-05T05:34:05.702Z,510.00
2023-05-05T05:35:05.694Z,510.00
2023-05-05T05:36:05.678Z,508.00
2023-05-05T05:37:05.662Z,505.00
2023-05-05T05:38:05.664Z,510.00
2023-05-05T05:39:05.639Z,516.00
2023-05-05T05:40:05.731Z,518.00
2023-05-05T05:41:06.037Z,523.00
2023-05-05T05:42:05.597Z,530.00
2023-05-05T05:43:05.600Z,533.00
2023-05-05T05:44:05.574Z,533.00
2023-05-05T05:45:05.582Z,531.00
2023-05-05T05:46:08.302Z,533.00
2023-05-05T05:47:05.553Z,533.00
2023-05-05T05:48:05.535Z,535.00
2023-05-05T05:49:05.467Z,537.00
2023-05-05T05:50:05.588Z,542.00
2023-05-05T05:51:08.615Z,551.00
2023-05-05T05:52:06.573Z,534.00
2023-05-05T05:53:08.811Z,540.00
2023-05-05T05:54:08.578Z,535.00
2023-05-05T05:55:12.769Z,535.00
2023-05-05T05:56:12.772Z,536.00
2023-05-05T05:57:08.737Z,536.00
2023-05-05T05:58:05.313Z,537.00
2023-05-05T05:59:05.278Z,548.00
2023-05-05T06:00:05.442Z,566.00
2023-05-05T06:01:05.252Z,593.00
2023-05-05T06:02:13.003Z,629.00
2023-05-05T06:03:05.742Z,537.00
2023-05-05T06:05:05.165Z,537.00
2023-05-05T06:07:20.782Z,538.00
2023-05-05T06:08:05.109Z,538.00
2023-05-05T06:09:06.597Z,557.00
2023-05-05T06:10:25.705Z,592.00
2023-05-05T06:11:05.052Z,538.00
2023-05-05T06:12:05.045Z,559.00
2023-05-05T06:13:05.050Z,597.00
2023-05-05T06:14:05.013Z,650.00
2023-05-05T06:16:20.602Z,539.00
2023-05-05T06:17:08.268Z,540.00
2023-05-05T06:18:08.247Z,541.00
2023-05-05T06:19:08.088Z,541.00
2023-05-05T06:20:08.301Z,541.00
2023-05-05T06:21:04.841Z,541.00
2023-05-05T06:22:05.701Z,569.00
2023-05-05T06:23:04.795Z,618.00
2023-05-05T06:24:05.063Z,712.00
2023-05-05T06:25:04.750Z,954.00
2023-05-05T06:26:04.753Z,958.00
2023-05-05T06:27:05.075Z,963.00
2023-05-05T06:28:04.691Z,957.00
2023-05-05T06:29:06.078Z,966.00
2023-05-05T06:30:04.636Z,978.00
2023-05-05T06:31:04.635Z,993.00
2023-05-05T06:32:04.588Z,998.00
2023-05-05T06:33:04.598Z,998.00
2023-05-05T06:34:04.585Z,1012.00
2023-05-05T06:35:04.544Z,1034.00
2023-05-05T06:36:04.524Z,1051.00
2023-05-05T06:37:04.529Z,1049.00
2023-05-05T06:38:07.705Z,1090.00
2023-05-05T06:39:04.669Z,1090.00
2023-05-05T06:40:04.449Z,1092.00
2023-05-05T06:41:04.442Z,1095.00
2023-05-05T06:42:07.611Z,1099.00
2023-05-05T06:43:04.397Z,1092.00
2023-05-05T06:44:04.563Z,1096.00
2023-05-05T06:45:04.341Z,1110.00
2023-05-05T06:46:04.751Z,1126.00
2023-05-05T06:47:04.439Z,1144.00
2023-05-05T06:48:04.341Z,1167.00
2023-05-05T06:49:04.573Z,1187.00
2023-05-05T06:50:04.482Z,1175.00
2023-05-05T06:51:11.587Z,1175.00
2023-05-05T06:52:04.170Z,1178.00
2023-05-05T06:53:04.154Z,1187.00
2023-05-05T12:17:53.177Z,500.00
2023-05-05T12:18:54.002Z,500.00
2023-05-05T12:19:54.013Z,500.00
2023-05-05T12:20:53.984Z,500.00
2023-05-05T12:21:53.982Z,500.00
2023-05-05T12:22:53.976Z,491.00
2023-05-05T12:23:53.957Z,500.00
2023-05-05T12:24:54.924Z,498.00
2023-05-05T12:25:53.922Z,500.00
2023-05-05T12:26:53.892Z,500.00
2023-05-05T12:27:53.871Z,537.00
2023-05-05T12:28:53.862Z,572.00
2023-05-05T12:29:53.842Z,567.00
2023-05-05T12:30:55.023Z,559.00
2023-05-05T12:31:53.855Z,558.00
2023-05-05T12:32:53.824Z,571.00
2023-05-05T12:33:53.870Z,500.00
2023-05-05T12:34:53.751Z,491.00
2023-05-05T12:35:53.729Z,505.00
2023-05-05T12:36:53.764Z,528.00
2023-05-05T12:37:53.788Z,498.00
2023-05-05T12:38:53.781Z,500.00
2023-05-05T12:39:53.817Z,521.00
2023-05-05T12:40:53.806Z,518.00
2023-05-05T12:41:53.836Z,525.00
2023-05-05T12:42:53.890Z,521.00
2023-05-05T12:43:53.912Z,536.00
2023-05-05T12:44:53.929Z,551.00
2023-05-05T12:45:53.982Z,558.00
2023-05-05T12:46:53.980Z,509.00
2023-05-05T12:47:54.032Z,500.00
2023-05-05T12:48:54.063Z,512.00
2023-05-05T12:49:54.393Z,542.00
2023-05-05T12:50:54.099Z,549.00
2023-05-05T12:51:54.147Z,513.00
2023-05-05T12:52:54.180Z,498.00
2023-05-05T12:53:54.216Z,520.00
2023-05-05T12:54:55.050Z,547.00
2023-05-05T12:55:54.304Z,560.00
2023-05-05T12:56:54.321Z,569.00
2023-05-05T12:57:54.356Z,588.00
2023-05-05T12:58:54.403Z,625.00
2023-05-05T12:59:54.458Z,602.00
2023-05-05T13:00:55.187Z,538.00
2023-05-05T13:01:54.606Z,549.00
2023-05-05T13:02:54.764Z,571.00
2023-05-05T13:03:54.595Z,557.00
2023-05-05T13:04:54.673Z,600.00
2023-05-05T13:05:54.820Z,578.00
2023-05-05T13:06:54.679Z,591.00
2023-05-05T13:07:54.729Z,579.00
2023-05-05T13:08:54.786Z,565.00
2023-05-05T13:09:54.826Z,572.00
2023-05-05T13:10:54.852Z,538.00
2023-05-05T13:11:54.908Z,549.00
2023-05-05T13:12:55.311Z,583.00
2023-05-05T13:13:54.954Z,593.00
2023-05-05T13:14:55.000Z,583.00
2023-05-05T13:15:55.048Z,568.00
2023-05-05T13:16:55.073Z,553.00
2023-05-05T13:17:55.186Z,521.00
2023-05-05T13:18:55.159Z,523.00
2023-05-05T13:19:55.192Z,547.00
2023-05-05T13:20:55.233Z,554.00
2023-05-05T13:21:55.375Z,593.00
2023-05-05T13:22:55.316Z,691.00
2023-05-05T13:24:01.551Z,770.00
2023-05-05T13:24:57.199Z,773.00
2023-05-05T13:25:55.714Z,775.00
2023-05-05T13:26:55.287Z,830.00
2023-05-05T13:27:55.264Z,852.00
2023-05-05T13:28:55.250Z,1001.00
2023-05-05T13:29:55.724Z,1196.00
2023-05-05T13:30:56.285Z,1209.00
2023-05-05T13:31:55.266Z,1247.00
2023-05-05T13:32:55.243Z,1328.00
2023-05-05T13:33:55.719Z,1398.00
2023-05-05T13:34:55.244Z,1466.00
2023-05-05T13:35:55.221Z,1513.00
2023-05-05T13:36:55.230Z,1540.00
2023-05-05T13:37:55.329Z,1568.00
2023-05-05T13:38:55.217Z,1430.00
2023-05-05T13:39:55.243Z,1149.00
2023-05-05T13:40:55.268Z,1059.00
2023-05-05T13:41:55.293Z,1034.00
2023-05-05T13:42:55.316Z,1009.00
2023-05-05T13:43:55.348Z,979.00
2023-05-05T13:44:55.384Z,909.00
2023-05-05T13:46:02.800Z,834.00
2023-05-05T13:46:55.390Z,823.00
2023-05-05T13:47:55.406Z,840.00
2023-05-05T13:48:56.893Z,844.00
2023-05-05T13:49:55.573Z,741.00
2023-05-05T13:50:55.636Z,663.00
2023-05-05T13:51:55.614Z,644.00
2023-05-05T13:52:55.592Z,649.00
2023-05-05T13:53:55.717Z,649.00
2023-05-05T13:54:55.629Z,725.00
2023-05-05T13:55:55.696Z,762.00
2023-05-05T13:56:55.601Z,674.00
2023-05-05T13:57:55.601Z,664.00
2023-05-05T13:58:55.635Z,657.00
2023-05-05T13:59:55.658Z,641.00
2023-05-05T14:00:56.331Z,638.00
2023-05-05T14:01:55.725Z,663.00
2023-05-05T14:02:55.771Z,629.00
2023-05-05T14:03:57.438Z,638.00
2023-05-05T14:04:55.784Z,612.00
2023-05-05T14:05:56.230Z,640.00
2023-05-05T14:06:55.733Z,654.00
2023-05-05T14:07:55.720Z,622.00
2023-05-05T14:08:55.710Z,620.00
2023-05-05T14:09:55.781Z,650.00
2023-05-05T14:10:55.658Z,615.00
2023-05-05T14:11:55.637Z,571.00
2023-05-05T14:12:55.694Z,558.00
2023-05-05T14:13:55.738Z,564.00
2023-05-05T14:14:55.594Z,565.00
2023-05-05T14:15:55.583Z,579.00
2023-05-05T14:16:55.622Z,571.00
2023-05-05T14:17:55.556Z,580.00
2023-05-05T14:18:55.532Z,682.00
2023-05-05T14:19:55.511Z,907.00
2023-05-05T14:20:55.506Z,1097.00
2023-05-05T14:21:55.492Z,1190.00
2023-05-05T14:22:55.513Z,1259.00
2023-05-05T14:23:55.473Z,1350.00
2023-05-05T14:24:55.469Z,1414.00
2023-05-05T14:25:55.570Z,1457.00
2023-05-05T14:26:55.494Z,1452.00
2023-05-05T14:27:55.508Z,1334.00
2023-05-05T14:28:55.808Z,1281.00
2023-05-05T14:29:55.576Z,1276.00
2023-05-05T14:30:55.598Z,1206.00
2023-05-05T14:31:55.756Z,1081.00
2023-05-05T14:32:55.679Z,1042.00
2023-05-05T14:33:55.751Z,929.00
2023-05-05T14:34:55.710Z,871.00
2023-05-05T14:35:55.706Z,724.00
2023-05-05T14:36:55.708Z,645.00
2023-05-05T14:37:55.717Z,647.00
2023-05-05T14:38:55.882Z,628.00
2023-05-05T14:39:55.715Z,584.00
2023-05-05T14:40:55.690Z,534.00
2023-05-05T14:41:55.818Z,528.00
2023-05-05T14:42:55.718Z,531.00
2023-05-05T14:43:55.759Z,534.00
2023-05-05T14:44:55.735Z,536.00
2023-05-05T14:45:55.799Z,554.00
2023-05-05T14:46:56.264Z,543.00
2023-05-05T14:47:55.889Z,530.00
2023-05-05T14:48:55.902Z,502.00
2023-05-05T14:49:55.940Z,521.00
2023-05-05T14:50:55.985Z,516.00
2023-05-05T14:51:56.804Z,546.00
2023-05-05T14:52:56.066Z,558.00
2023-05-05T14:53:56.110Z,526.00
2023-05-05T14:54:56.145Z,500.00
2023-05-05T14:55:56.172Z,500.00
2023-05-05T14:56:56.242Z,498.00
2023-05-05T14:57:56.399Z,504.00
2023-05-05T14:58:56.265Z,511.00
2023-05-05T14:59:56.293Z,504.00
2023-05-05T15:00:56.318Z,504.00
2023-05-05T15:01:56.436Z,517.00
2023-05-05T15:02:56.468Z,518.00
2023-05-05T15:03:56.485Z,524.00
2023-05-05T15:04:56.763Z,538.00
2023-05-05T15:05:56.500Z,541.00
2023-05-05T15:06:56.498Z,547.00
2023-05-05T15:07:56.522Z,563.00
2023-05-05T15:08:56.558Z,569.00
2023-05-05T15:09:56.589Z,574.00
2023-05-05T15:10:56.607Z,534.00
2023-05-05T15:11:56.632Z,500.00
2023-05-05T15:12:56.683Z,541.00
2023-05-05T15:13:56.859Z,564.00
2023-05-05T15:14:56.676Z,566.00
2023-05-05T15:15:56.732Z,587.00
2023-05-05T15:16:56.712Z,611.00
2023-05-05T15:17:56.768Z,616.00
2023-05-05T15:18:56.749Z,621.00
2023-05-05T15:19:56.772Z,622.00
2023-05-05T15:20:56.855Z,620.00
2023-05-05T15:21:56.792Z,615.00
2023-05-05T15:22:56.811Z,619.00
2023-05-05T15:23:56.830Z,635.00
2023-05-05T15:24:56.850Z,623.00
2023-05-05T15:25:56.875Z,621.00
2023-05-05T15:26:56.916Z,624.00
2023-05-05T15:27:56.912Z,620.00
2023-05-05T15:28:56.923Z,621.00
2023-05-05T15:29:57.029Z,615.00
2023-05-05T15:30:56.945Z,607.00
2023-05-05T15:31:57.029Z,615.00
2023-05-05T15:32:57.052Z,603.00
2023-05-05T15:33:56.998Z,580.00
2023-05-05T15:34:57.000Z,594.00
2023-05-05T15:35:57.017Z,604.00
2023-05-05T15:36:57.036Z,588.00
2023-05-05T15:37:57.055Z,611.00
2023-05-05T15:38:57.065Z,594.00
2023-05-05T15:39:57.090Z,583.00
2023-05-05T15:40:57.107Z,630.00
2023-05-05T15:41:57.130Z,688.00
2023-05-05T15:42:57.151Z,709.00
2023-05-05T15:43:57.171Z,783.00
2023-05-05T15:44:57.238Z,758.00
2023-05-05T15:45:57.470Z,766.00
2023-05-05T15:46:57.297Z,754.00
2023-05-05T15:47:57.446Z,775.00
2023-05-05T15:48:57.347Z,840.00
2023-05-05T15:49:57.402Z,1027.00
2023-05-05T15:50:57.382Z,1163.00
2023-05-05T15:51:57.393Z,1337.00
2023-05-05T15:52:57.434Z,1430.00
2023-05-05T15:53:57.449Z,1515.00
2023-05-05T15:54:57.492Z,1598.00
2023-05-05T15:55:57.532Z,1650.00
2023-05-05T15:56:57.592Z,1678.00
2023-05-05T15:57:57.666Z,1712.00
2023-05-05T15:58:57.760Z,1709.00
2023-05-05T15:59:57.780Z,1660.00
2023-05-05T16:00:57.938Z,1658.00
2023-05-05T16:01:58.035Z,1694.00
2023-05-05T16:02:58.074Z,1718.00
2023-05-05T16:03:57.981Z,1718.00
2023-05-05T16:04:57.990Z,1710.00
2023-05-05T16:05:58.015Z,1706.00
2023-05-05T16:06:58.016Z,1700.00
2023-05-05T16:07:58.033Z,1688.00
2023-05-05T16:08:58.056Z,1653.00
2023-05-05T16:09:58.048Z,1661.00
2023-05-05T16:10:58.059Z,1619.00
2023-05-05T16:11:58.059Z,1564.00
2023-05-05T16:12:58.129Z,1524.00
2023-05-05T16:13:58.166Z,1498.00
2023-05-05T16:14:58.216Z,1479.00
2023-05-05T16:15:58.249Z,1451.00
2023-05-05T16:16:58.326Z,1451.00
2023-05-05T16:17:58.378Z,1423.00
2023-05-05T16:18:58.281Z,1416.00
2023-05-05T16:19:58.308Z,1419.00
2023-05-05T16:20:58.323Z,1210.00
2023-05-05T16:21:58.326Z,1026.00
2023-05-05T16:22:58.333Z,918.00
2023-05-05T16:23:58.313Z,802.00
2023-05-05T16:24:58.330Z,658.00
2023-05-05T16:25:58.278Z,638.00
2023-05-05T16:26:58.255Z,597.00
2023-05-05T16:27:58.242Z,565.00
2023-05-05T16:28:58.235Z,576.00
2023-05-05T16:29:59.687Z,591.00
2023-05-05T16:30:58.418Z,584.00
2023-05-05T16:31:58.538Z,576.00
2023-05-05T16:32:58.493Z,565.00
2023-05-05T16:33:58.662Z,567.00
2023-05-05T16:34:58.566Z,573.00
2023-05-05T16:35:58.576Z,569.00
2023-05-05T16:36:58.626Z,577.00
2023-05-05T16:37:58.566Z,569.00
2023-05-05T16:38:58.566Z,571.00
2023-05-05T16:39:58.854Z,604.00
2023-05-05T16:40:58.577Z,620.00
2023-05-05T16:41:58.597Z,663.00
2023-05-05T16:42:58.592Z,714.00
2023-05-05T16:43:58.605Z,728.00
2023-05-05T16:44:58.651Z,760.00
2023-05-05T16:45:58.708Z,864.00
2023-05-05T16:46:58.681Z,899.00
2023-05-05T16:47:58.726Z,931.00
2023-05-05T16:48:58.764Z,1005.00
2023-05-05T16:49:58.799Z,1072.00
2023-05-05T16:50:58.817Z,1163.00
2023-05-05T16:51:58.865Z,1206.00
2023-05-05T16:52:58.909Z,1275.00
2023-05-05T16:53:58.957Z,1381.00
2023-05-05T16:54:58.972Z,1444.00
2023-05-05T16:55:59.060Z,1500.00
2023-05-05T16:56:59.081Z,1524.00
2023-05-05T16:57:59.119Z,1587.00
2023-05-05T16:58:59.168Z,1616.00
2023-05-05T16:59:59.232Z,1637.00
2023-05-05T17:00:59.302Z,1684.00
2023-05-05T17:01:59.509Z,1703.00
2023-05-05T17:02:59.431Z,1777.00
2023-05-05T17:03:59.430Z,1814.00
2023-05-05T17:04:59.506Z,1808.00
2023-05-05T17:05:59.639Z,1795.00
2023-05-05T17:06:59.591Z,1822.00
2023-05-05T17:07:59.654Z,1863.00
2023-05-05T17:08:59.689Z,1898.00
2023-05-05T17:09:59.727Z,1941.00
2023-05-05T17:10:59.822Z,1947.00
2023-05-05T17:11:59.883Z,1993.00
2023-05-05T17:12:59.944Z,2025.00
2023-05-05T17:13:59.970Z,2030.00
2023-05-05T17:15:00.062Z,2035.00
2023-05-05T17:16:00.205Z,2062.00
2023-05-05T17:17:00.132Z,2087.00
2023-05-05T17:18:00.253Z,2098.00
2023-05-05T17:19:00.328Z,2110.00
2023-05-05T17:20:00.310Z,2129.00
2023-05-05T17:21:00.329Z,2135.00
2023-05-05T17:22:00.478Z,2151.00
2023-05-05T17:23:00.354Z,2115.00
2023-05-05T17:24:00.377Z,2151.00
2023-05-05T17:25:00.355Z,2238.00
2023-05-05T17:26:00.381Z,2306.00
2023-05-05T17:27:00.404Z,2305.00
2023-05-05T17:28:00.406Z,2244.00
2023-05-05T17:29:00.436Z,2189.00
2023-05-05T17:30:00.396Z,2184.00
2023-05-05T17:31:00.406Z,2169.00
2023-05-05T17:32:00.432Z,2152.00
2023-05-05T17:33:00.439Z,2149.00
2023-05-05T17:34:00.424Z,2143.00
2023-05-05T17:35:00.424Z,2137.00
2023-05-05T17:36:00.499Z,2121.00
2023-05-05T17:37:00.450Z,1997.00
2023-05-05T17:38:00.496Z,1969.00
2023-05-05T17:39:00.522Z,1985.00
2023-05-05T17:40:00.556Z,2066.00
2023-05-05T17:41:01.222Z,2118.00
2023-05-05T17:42:01.377Z,2121.00
2023-05-05T17:43:01.367Z,2145.00
2023-05-05T17:44:01.367Z,2142.00
2023-05-05T17:45:00.741Z,2148.00
2023-05-05T17:46:01.288Z,2139.00
2023-05-05T17:47:00.936Z,2112.00
2023-05-05T17:48:01.103Z,2113.00
2023-05-05T17:49:00.812Z,2107.00
2023-05-05T17:50:00.791Z,2109.00
2023-05-05T17:51:00.699Z,2151.00